createdAt,value
2017-11-04T00:01:53.662Z,55.30
2017-11-04T00:04:22.168Z,43.83
2017-11-04T00:06:49.728Z,36.93
2017-11-04T00:09:17.411Z,39.87
2017-11-04T00:11:44.974Z,36.70
2017-11-04T00:14:12.548Z,40.50
2017-11-04T00:16:40.251Z,38.93
2017-11-04T00:19:08.607Z,44.63
2017-11-04T00:21:36.147Z,42.93
2017-11-04T00:24:04.535Z,42.47
2017-11-04T00:26:32.096Z,39.57
2017-11-04T00:28:59.678Z,33.53
2017-11-04T00:31:27.981Z,39.13
2017-11-04T00:33:55.535Z,41.77
2017-11-04T00:36:23.068Z,37.27
2017-11-04T00:38:51.358Z,32.33
2017-11-04T00:41:18.933Z,40.20
2017-11-04T00:43:46.493Z,45.33
2017-11-04T00:46:14.047Z,44.77
2017-11-04T00:48:41.605Z,38.00
2017-11-04T00:51:09.144Z,35.83
2017-11-04T00:53:36.717Z,40.50
2017-11-04T00:56:04.290Z,37.70
2017-11-04T00:58:31.825Z,37.90
2017-11-04T01:00:59.377Z,44.20
2017-11-04T01:03:26.946Z,41.90
2017-11-04T01:05:54.589Z,41.27
2017-11-04T01:08:22.901Z,40.23
2017-11-04T01:10:50.502Z,47.97
2017-11-04T01:13:19.579Z,41.63
2017-11-04T01:15:47.113Z,38.43
2017-11-04T01:18:14.840Z,46.10
2017-11-04T01:20:43.341Z,54.50
2017-11-04T01:23:10.863Z,37.63
2017-11-04T01:25:39.177Z,36.40
2017-11-04T01:28:06.736Z,55.27
2017-11-04T01:30:34.290Z,44.10
2017-11-04T01:33:01.853Z,42.53
2017-11-04T01:35:29.453Z,44.60
2017-11-04T01:37:57.796Z,50.03
2017-11-04T01:40:25.328Z,52.73
2017-11-04T01:42:52.907Z,47.43
2017-11-04T01:45:20.460Z,47.87
2017-11-04T01:47:48.015Z,47.87
2017-11-04T01:50:15.680Z,51.07
2017-11-04T01:52:43.225Z,49.83
2017-11-04T01:55:10.815Z,62.47
2017-11-04T01:57:38.556Z,44.07
2017-11-04T02:00:06.085Z,57.03
2017-11-04T02:02:34.417Z,60.57
2017-11-04T02:05:01.943Z,53.83
2017-11-04T02:07:29.471Z,45.47
2017-11-04T02:09:57.802Z,52.90
2017-11-04T02:12:25.332Z,48.30
2017-11-04T02:14:52.920Z,52.17
2017-11-04T02:17:20.486Z,50.97
2017-11-04T02:19:48.223Z,49.77
2017-11-04T02:22:15.729Z,54.30
2017-11-04T02:24:43.255Z,57.93
2017-11-04T02:27:10.895Z,52.07
2017-11-04T02:29:38.456Z,49.70
2017-11-04T02:32:05.976Z,52.40
2017-11-04T02:34:34.297Z,53.43
2017-11-04T02:37:01.837Z,52.60
2017-11-04T02:39:29.408Z,54.33
2017-11-04T02:41:57.166Z,45.00
2017-11-04T02:44:24.714Z,53.27
2017-11-04T02:46:52.260Z,54.40
2017-11-04T02:49:19.931Z,72.70
2017-11-04T02:51:47.513Z,42.43
2017-11-04T02:54:15.055Z,56.73
2017-11-04T02:56:42.616Z,47.00
2017-11-04T02:59:10.178Z,54.17
2017-11-04T03:01:37.773Z,58.30
2017-11-04T03:04:05.312Z,47.00
2017-11-04T03:06:32.840Z,52.33
2017-11-04T03:09:00.418Z,54.33
2017-11-04T03:11:27.949Z,51.20
2017-11-04T03:13:55.728Z,50.27
2017-11-04T03:16:23.275Z,48.43
2017-11-04T03:18:51.669Z,49.93
2017-11-04T03:21:19.335Z,44.23
2017-11-04T03:23:46.867Z,42.17
2017-11-04T03:26:14.647Z,50.97
2017-11-04T03:28:42.180Z,57.77
2017-11-04T03:31:10.527Z,71.07
2017-11-04T03:33:38.857Z,52.37
2017-11-04T03:36:06.414Z,47.70
2017-11-04T03:38:34.177Z,54.00
2017-11-04T03:41:01.719Z,51.07
2017-11-04T03:43:29.268Z,50.03
2017-11-04T03:45:56.894Z,123.53
2017-11-04T03:48:24.421Z,75.43
2017-11-04T03:50:52.015Z,64.50
2017-11-04T03:53:19.557Z,45.90
2017-11-04T03:55:47.088Z,43.27
2017-11-04T03:58:14.649Z,47.93
2017-11-04T04:00:42.177Z,47.17
2017-11-04T04:03:09.793Z,54.30
2017-11-04T04:05:37.354Z,50.27
2017-11-04T04:08:05.684Z,44.73
2017-11-04T04:10:33.255Z,52.47
2017-11-04T04:13:00.793Z,47.20
2017-11-04T04:15:28.471Z,49.77
2017-11-04T04:17:56.050Z,55.63
2017-11-04T04:20:23.590Z,71.00
2017-11-04T04:22:51.118Z,65.83
2017-11-04T04:25:19.473Z,61.23
2017-11-04T04:27:47.013Z,63.70
2017-11-04T04:30:14.553Z,69.50
2017-11-04T04:32:42.081Z,69.93
2017-11-04T04:35:09.756Z,63.40
2017-11-04T04:37:37.293Z,74.83
2017-11-04T04:40:05.617Z,72.40
2017-11-04T04:42:33.246Z,56.70
2017-11-04T04:45:00.810Z,65.07
2017-11-04T04:47:28.374Z,65.97
2017-11-04T04:49:55.891Z,85.47
2017-11-04T04:52:24.229Z,83.07
2017-11-04T04:54:51.784Z,84.97
2017-11-04T04:57:19.350Z,80.87
2017-11-04T04:59:46.954Z,96.70
2017-11-04T05:02:15.237Z,74.87
2017-11-04T05:04:42.985Z,81.27
2017-11-04T05:07:11.319Z,69.40
2017-11-04T05:09:38.877Z,83.13
2017-11-04T05:12:06.432Z,74.60
2017-11-04T05:14:34.015Z,75.73
2017-11-04T05:17:01.565Z,86.40
2017-11-04T05:19:29.117Z,80.20
2017-11-04T05:21:56.678Z,79.03
2017-11-04T05:24:24.266Z,83.13
2017-11-04T05:26:52.569Z,94.73
2017-11-04T05:29:20.149Z,82.37
2017-11-04T05:31:47.710Z,95.10
2017-11-04T05:34:15.232Z,93.80
2017-11-04T05:36:42.796Z,91.37
2017-11-04T05:39:10.359Z,92.57
2017-11-04T05:41:37.903Z,92.93
2017-11-04T05:44:05.475Z,116.53
2017-11-04T05:46:33.034Z,93.37
2017-11-04T05:49:00.581Z,78.23
2017-11-04T05:51:28.142Z,121.40
2017-11-04T05:53:55.747Z,141.77
2017-11-04T05:56:23.278Z,116.47
2017-11-04T05:58:50.828Z,72.87
2017-11-04T06:01:18.383Z,81.43
2017-11-04T06:03:45.923Z,76.07
2017-11-04T06:06:13.593Z,74.73
2017-11-04T06:08:41.120Z,79.57
2017-11-04T06:11:09.424Z,73.90
2017-11-04T06:13:37.048Z,76.60
2017-11-04T06:16:04.613Z,75.23
2017-11-04T06:18:32.312Z,76.97
2017-11-04T06:20:59.840Z,91.77
2017-11-04T06:23:28.158Z,73.03
2017-11-04T06:25:55.812Z,87.23
2017-11-04T06:28:23.374Z,102.53
2017-11-04T06:30:51.021Z,85.07
2017-11-04T06:33:19.564Z,116.40
2017-11-04T06:35:47.119Z,114.17
2017-11-04T06:38:14.725Z,120.40
2017-11-04T06:40:42.284Z,127.90
2017-11-04T06:43:09.989Z,122.53
2017-11-04T06:45:37.536Z,116.63
2017-11-04T06:48:05.087Z,121.43
2017-11-04T06:50:32.626Z,118.20
2017-11-04T06:53:00.153Z,122.60
2017-11-04T06:55:27.712Z,119.40
2017-11-04T06:57:56.055Z,125.00
2017-11-04T07:00:23.591Z,105.23
2017-11-04T07:02:51.126Z,97.23
2017-11-04T07:05:18.712Z,100.70
2017-11-04T07:07:46.322Z,92.53
2017-11-04T07:10:14.612Z,97.50
2017-11-04T07:12:42.162Z,91.17
2017-11-04T07:15:10.486Z,95.40
2017-11-04T07:17:38.031Z,104.63
2017-11-04T07:20:05.710Z,88.83
2017-11-04T07:22:33.272Z,103.60
2017-11-04T07:25:00.794Z,103.00
2017-11-04T07:27:28.368Z,96.87
2017-11-04T07:29:55.921Z,94.53
2017-11-04T07:32:23.672Z,90.53
2017-11-04T07:34:51.213Z,103.97
2017-11-04T07:37:18.814Z,113.67
2017-11-04T07:39:46.434Z,112.60
2017-11-04T07:42:13.985Z,123.33
2017-11-04T07:44:41.750Z,111.83
2017-11-04T07:47:09.314Z,150.47
2017-11-04T07:49:36.867Z,131.80
2017-11-04T07:52:04.418Z,122.03
2017-11-04T07:54:31.996Z,108.50
2017-11-04T07:56:59.569Z,103.90
2017-11-04T07:59:27.104Z,117.07
2017-11-04T08:01:54.638Z,103.93
2017-11-04T08:04:22.952Z,104.30
2017-11-04T08:06:50.534Z,117.73
2017-11-04T08:09:18.095Z,106.17
2017-11-04T08:11:45.697Z,95.03
2017-11-04T08:14:14.031Z,107.63
2017-11-04T08:16:41.572Z,102.90
2017-11-04T08:19:09.129Z,102.67
2017-11-04T08:21:36.700Z,94.80
2017-11-04T08:24:04.264Z,94.57
2017-11-04T08:26:31.814Z,112.33
2017-11-04T08:28:59.686Z,94.00
2017-11-04T08:31:27.278Z,81.87
2017-11-04T08:33:55.631Z,90.57
2017-11-04T08:36:23.188Z,80.37
2017-11-04T08:38:50.754Z,82.67
2017-11-04T08:41:18.313Z,80.60
2017-11-04T08:43:45.863Z,79.57
2017-11-04T08:46:13.405Z,80.83
2017-11-04T08:48:41.042Z,78.13
2017-11-04T08:51:08.578Z,74.63
2017-11-04T08:53:36.872Z,74.40
2017-11-04T08:56:04.439Z,75.30
2017-11-04T08:58:31.975Z,80.03
2017-11-04T09:00:59.580Z,78.17
2017-11-04T09:03:27.100Z,74.90
2017-11-04T09:05:54.686Z,73.67
2017-11-04T09:08:22.315Z,67.23
2017-11-04T09:10:49.906Z,69.07
2017-11-04T09:13:17.471Z,65.90
2017-11-04T09:15:45.013Z,63.07
2017-11-04T09:18:12.564Z,69.40
2017-11-04T09:20:46.913Z,63.70
2017-11-04T09:23:14.473Z,58.77
2017-11-04T09:25:42.012Z,60.97
2017-11-04T09:28:09.601Z,61.17
2017-11-04T09:30:37.144Z,68.13
2017-11-04T09:33:04.795Z,52.87
2017-11-04T09:35:32.346Z,57.30
2017-11-04T09:37:59.993Z,60.23
2017-11-04T09:40:27.721Z,51.77
2017-11-04T09:42:56.062Z,59.13
2017-11-04T09:45:23.830Z,61.47
2017-11-04T09:47:51.540Z,63.93
2017-11-04T09:50:19.246Z,51.60
2017-11-04T09:52:47.467Z,60.73
2017-11-04T09:55:15.110Z,53.33
2017-11-04T09:57:45.797Z,62.10
2017-11-04T10:00:13.339Z,56.37
2017-11-04T10:02:41.096Z,52.87
2017-11-04T10:05:09.806Z,50.23
2017-11-04T10:07:38.273Z,55.53
2017-11-04T10:10:06.642Z,57.27
2017-11-04T10:12:34.213Z,57.40
2017-11-04T10:15:01.790Z,51.67
2017-11-04T10:17:29.352Z,58.60
2017-11-04T10:19:56.933Z,63.10
2017-11-04T10:22:24.679Z,61.77
2017-11-04T10:24:53.037Z,55.80
2017-11-04T10:27:20.696Z,53.10
2017-11-04T10:29:48.258Z,56.57
2017-11-04T10:32:15.804Z,57.20
2017-11-04T10:34:43.381Z,52.87
2017-11-04T10:37:11.114Z,50.33
2017-11-04T10:39:38.716Z,56.43
2017-11-04T10:42:06.393Z,53.10
2017-11-04T10:44:34.724Z,53.77
2017-11-04T10:47:02.510Z,58.67
2017-11-04T10:49:30.381Z,52.63
2017-11-04T10:51:58.064Z,49.10
2017-11-04T10:54:31.170Z,56.57
2017-11-04T10:57:00.515Z,59.13
2017-11-04T10:59:28.454Z,53.87
2017-11-04T11:01:56.008Z,52.30
2017-11-04T11:04:23.597Z,48.57
2017-11-04T11:06:51.145Z,56.07
2017-11-04T11:09:18.706Z,49.10
2017-11-04T11:11:46.352Z,56.20
2017-11-04T11:14:14.374Z,69.53
2017-11-04T11:16:42.039Z,56.53
2017-11-04T11:19:10.737Z,51.97
2017-11-04T11:21:39.101Z,59.87
2017-11-04T11:24:07.174Z,54.43
2017-11-04T11:26:36.240Z,49.50
2017-11-04T11:29:04.288Z,54.03
2017-11-04T11:31:31.889Z,55.73
2017-11-04T11:34:00.514Z,57.93
2017-11-04T11:36:28.085Z,44.70
2017-11-04T11:38:56.413Z,53.37
2017-11-04T11:41:24.778Z,67.47
2017-11-04T11:43:52.350Z,48.93
2017-11-04T11:46:21.147Z,50.77
2017-11-04T11:48:49.478Z,44.70
2017-11-04T11:51:17.181Z,53.83
2017-11-04T11:53:45.201Z,55.60
2017-11-04T11:56:12.893Z,45.60
2017-11-04T11:58:40.554Z,52.00
2017-11-04T12:01:08.250Z,47.80
2017-11-04T12:03:35.923Z,45.07
2017-11-04T12:06:03.533Z,47.90
2017-11-04T12:08:31.150Z,48.03
2017-11-04T12:10:58.914Z,51.10
2017-11-04T12:13:26.491Z,52.63
2017-11-04T12:15:54.064Z,53.60
2017-11-04T12:18:21.653Z,47.57
2017-11-04T12:20:50.056Z,46.63
2017-11-04T12:23:17.604Z,51.60
2017-11-04T12:25:45.199Z,47.53
2017-11-04T12:28:12.786Z,45.93
2017-11-04T12:30:40.369Z,49.17
2017-11-04T12:33:08.674Z,49.80
2017-11-04T12:35:36.556Z,44.17
2017-11-04T12:38:04.118Z,45.10
2017-11-04T12:40:31.755Z,45.90
2017-11-04T12:42:59.355Z,53.13
2017-11-04T12:45:27.004Z,42.13
2017-11-04T12:47:54.732Z,45.03
2017-11-04T12:50:22.294Z,42.00
2017-11-04T12:52:49.843Z,41.00
2017-11-04T12:55:17.481Z,40.40
2017-11-04T12:57:45.821Z,38.80
2017-11-04T13:00:13.407Z,34.10
2017-11-04T13:02:41.736Z,32.80
2017-11-04T13:05:09.301Z,43.97
2017-11-04T13:07:36.851Z,20.93
2017-11-04T13:10:04.438Z,20.60
2017-11-04T13:12:32.019Z,23.27
2017-11-04T13:15:00.666Z,24.40
2017-11-04T13:17:29.103Z,22.93
2017-11-04T13:19:56.656Z,21.23
2017-11-04T13:22:24.254Z,21.77
2017-11-04T13:24:51.794Z,19.80
2017-11-04T13:27:19.589Z,18.23
2017-11-04T13:29:47.135Z,22.83
2017-11-04T13:32:14.672Z,19.33
2017-11-04T13:34:42.244Z,24.90
2017-11-04T13:37:09.782Z,20.10
2017-11-04T13:39:37.866Z,20.97
2017-11-04T13:42:05.421Z,21.80
2017-11-04T13:44:32.969Z,25.40
2017-11-04T13:47:00.559Z,20.90
2017-11-04T13:49:28.166Z,18.00
2017-11-04T13:51:55.737Z,25.10
2017-11-04T13:54:23.314Z,24.13
2017-11-04T13:56:50.885Z,17.27
2017-11-04T13:59:18.430Z,19.17
2017-11-04T14:01:45.976Z,19.67
2017-11-04T14:04:13.553Z,18.07
2017-11-04T14:06:41.128Z,20.90
2017-11-04T14:09:08.692Z,184.80
2017-11-04T14:11:36.506Z,67.77
2017-11-04T14:14:04.076Z,26.47
2017-11-04T14:16:31.820Z,17.40
2017-11-04T14:18:59.368Z,15.93
2017-11-04T14:21:27.719Z,16.97
2017-11-04T14:23:55.434Z,19.07
2017-11-04T14:26:22.985Z,17.40
2017-11-04T14:28:50.749Z,13.60
2017-11-04T14:31:18.325Z,19.27
2017-11-04T14:33:45.977Z,15.57
2017-11-04T14:36:13.530Z,13.63
2017-11-04T14:38:41.143Z,15.97
2017-11-04T14:41:08.787Z,32.47
2017-11-04T14:43:36.371Z,18.17
2017-11-04T14:46:03.936Z,16.53
2017-11-04T14:48:31.512Z,22.20
2017-11-04T14:50:59.062Z,20.60
2017-11-04T14:53:27.469Z,18.80
2017-11-04T14:55:55.034Z,15.13
2017-11-04T14:58:22.598Z,17.63
2017-11-04T15:00:50.162Z,19.10
2017-11-04T15:03:17.807Z,22.10
2017-11-04T15:05:45.596Z,20.17
2017-11-04T15:08:13.189Z,21.33
2017-11-04T15:10:41.506Z,13.03
2017-11-04T15:13:09.142Z,21.33
2017-11-04T15:15:36.717Z,15.87
2017-11-04T15:18:04.331Z,18.90
2017-11-04T15:20:31.877Z,18.43
2017-11-04T15:22:59.442Z,15.73
2017-11-04T15:25:27.158Z,12.17
2017-11-04T15:27:54.760Z,13.33
2017-11-04T15:30:22.698Z,16.63
2017-11-04T15:32:50.280Z,18.97
2017-11-04T15:35:17.834Z,18.90
2017-11-04T15:37:45.419Z,15.93
2017-11-04T15:40:13.021Z,13.50
2017-11-04T15:42:40.699Z,15.37
2017-11-04T15:45:08.336Z,14.90
2017-11-04T15:47:35.890Z,20.63
2017-11-04T15:50:03.453Z,24.00
2017-11-04T15:52:31.233Z,15.17
2017-11-04T15:54:58.859Z,25.40
2017-11-04T15:57:26.414Z,19.77
2017-11-04T15:59:54.064Z,17.67
2017-11-04T16:02:23.169Z,13.30
2017-11-04T16:04:51.498Z,17.90
2017-11-04T16:07:19.078Z,22.50
2017-11-04T16:09:46.633Z,27.47
2017-11-04T16:12:14.344Z,18.37
2017-11-04T16:14:41.928Z,17.93
2017-11-04T16:17:09.486Z,24.87
2017-11-04T16:19:37.174Z,22.30
2017-11-04T16:22:04.744Z,20.93
2017-11-04T16:24:32.343Z,20.60
2017-11-04T16:26:59.964Z,22.07
2017-11-04T16:29:28.301Z,20.90
2017-11-04T16:31:55.865Z,19.20
2017-11-04T16:34:23.434Z,16.50
2017-11-04T16:36:51.064Z,24.33
2017-11-04T16:39:18.626Z,19.33
2017-11-04T16:41:46.181Z,18.00
2017-11-04T16:44:14.037Z,18.10
2017-11-04T16:46:41.609Z,20.63
2017-11-04T16:49:09.252Z,20.37
2017-11-04T16:51:37.003Z,23.83
2017-11-04T16:54:04.539Z,19.73
2017-11-04T16:56:32.873Z,25.43
2017-11-04T16:59:00.463Z,19.73
2017-11-04T17:01:28.476Z,22.77
2017-11-04T17:03:56.351Z,32.70
2017-11-04T17:06:24.797Z,21.73
2017-11-04T17:08:52.415Z,23.80
2017-11-04T17:11:19.994Z,19.30
2017-11-04T17:13:48.298Z,17.53
2017-11-04T17:16:15.923Z,20.00
2017-11-04T17:18:43.494Z,18.77
2017-11-04T17:21:11.184Z,20.00
2017-11-04T17:23:38.738Z,20.33
2017-11-04T17:26:06.354Z,31.17
2017-11-04T17:28:33.913Z,25.87
2017-11-04T17:31:01.514Z,25.23
2017-11-04T17:33:29.116Z,21.97
2017-11-04T17:35:56.657Z,31.30
2017-11-04T17:38:24.214Z,29.10
2017-11-04T17:40:51.814Z,21.10
2017-11-04T17:43:19.360Z,18.17
2017-11-04T17:45:46.954Z,18.67
2017-11-04T17:48:15.287Z,30.03
2017-11-04T17:50:42.861Z,479.07
2017-11-04T17:53:10.476Z,28.30
2017-11-04T17:55:38.050Z,19.27
2017-11-04T17:58:05.647Z,20.93
2017-11-04T18:00:33.201Z,16.70
2017-11-04T18:03:00.782Z,19.80
2017-11-04T18:05:29.109Z,18.83
2017-11-04T18:07:56.655Z,23.80
2017-11-04T18:10:24.225Z,20.57
2017-11-04T18:12:51.780Z,22.30
2017-11-04T18:15:19.330Z,25.33
2017-11-04T18:17:46.915Z,15.63
2017-11-04T18:20:14.535Z,17.57
2017-11-04T18:22:42.101Z,17.10
2017-11-04T18:25:09.682Z,17.80
2017-11-04T18:27:37.225Z,18.83
2017-11-04T18:30:04.837Z,15.13
2017-11-04T18:32:33.174Z,19.43
2017-11-04T18:35:00.762Z,21.00
2017-11-04T18:37:28.311Z,13.67
2017-11-04T18:39:55.908Z,15.27
2017-11-04T18:42:23.485Z,14.50
2017-11-04T18:44:51.039Z,14.43
2017-11-04T18:47:18.636Z,21.93
2017-11-04T18:49:46.169Z,16.17
2017-11-04T18:52:13.772Z,16.80
2017-11-04T18:54:41.478Z,40.67
2017-11-04T18:57:09.035Z,16.70
2017-11-04T18:59:36.633Z,14.30
2017-11-04T19:02:04.254Z,13.70
2017-11-04T19:04:31.836Z,19.63
2017-11-04T19:06:59.373Z,12.47
2017-11-04T19:09:26.926Z,17.13
2017-11-04T19:11:54.507Z,9.67
2017-11-04T19:14:22.068Z,13.10
2017-11-04T19:16:49.808Z,10.90
2017-11-04T19:19:17.374Z,10.67
2017-11-04T19:21:44.931Z,14.40
2017-11-04T19:24:12.498Z,13.37
2017-11-04T19:26:40.093Z,12.10
2017-11-04T19:29:07.678Z,13.13
2017-11-04T19:31:36.099Z,12.77
2017-11-04T19:34:03.654Z,18.63
2017-11-04T19:36:31.221Z,13.57
2017-11-04T19:38:58.755Z,81.67
2017-11-04T19:41:26.361Z,20.07
2017-11-04T19:43:55.442Z,15.17
2017-11-04T19:46:23.018Z,14.90
2017-11-04T19:48:50.614Z,16.67
2017-11-04T19:51:18.161Z,9.80
2017-11-04T19:53:45.746Z,10.23
2017-11-04T19:56:13.301Z,20.83
2017-11-04T19:58:41.642Z,13.80
2017-11-04T20:01:09.987Z,11.43
2017-11-04T20:03:37.544Z,9.60
2017-11-04T20:06:05.178Z,10.60
2017-11-04T20:08:32.748Z,11.50
2017-11-04T20:11:00.354Z,10.07
2017-11-04T20:13:28.694Z,11.87
2017-11-04T20:15:56.250Z,11.20
2017-11-04T20:18:23.882Z,10.80
2017-11-04T20:20:51.433Z,12.13
2017-11-04T20:23:19.216Z,12.77
2017-11-04T20:25:46.794Z,19.80
2017-11-04T20:28:14.371Z,12.17
2017-11-04T20:30:42.778Z,15.70
2017-11-04T20:33:10.407Z,12.67
2017-11-04T20:35:37.972Z,13.87
2017-11-04T20:38:05.779Z,12.97
2017-11-04T20:40:33.337Z,11.30
2017-11-04T20:43:00.912Z,14.97
2017-11-04T20:45:28.485Z,14.60
2017-11-04T20:47:56.057Z,14.10
2017-11-04T20:50:23.684Z,15.17
2017-11-04T20:52:51.542Z,16.77
2017-11-04T20:55:19.128Z,14.67
2017-11-04T20:57:46.714Z,16.23
2017-11-04T21:00:14.345Z,14.97
2017-11-04T21:02:41.939Z,18.00
2017-11-04T21:05:10.309Z,10.53
2017-11-04T21:07:37.943Z,13.50
2017-11-04T21:10:05.537Z,10.97
2017-11-04T21:12:33.876Z,12.00
2017-11-04T21:15:01.641Z,22.00
2017-11-04T21:17:29.169Z,12.57
2017-11-04T21:19:56.729Z,12.87
2017-11-04T21:22:24.416Z,12.97
2017-11-04T21:24:52.042Z,13.90
2017-11-04T21:27:19.594Z,11.40
2017-11-04T21:29:47.211Z,14.93
2017-11-04T21:32:14.826Z,15.33
2017-11-04T21:34:42.363Z,12.10
2017-11-04T21:37:09.991Z,13.37
2017-11-04T21:39:38.124Z,12.73
2017-11-04T21:42:05.677Z,13.53
2017-11-04T21:44:33.266Z,10.77
2017-11-04T21:47:00.877Z,16.17
2017-11-04T21:49:28.444Z,35.57
2017-11-04T21:51:56.205Z,87.77
2017-11-04T21:54:23.777Z,240.80
2017-11-04T21:56:51.506Z,156.67
2017-11-04T21:59:20.635Z,19.30
2017-11-04T22:01:48.182Z,20.13
2017-11-04T22:04:15.726Z,13.93
2017-11-04T22:06:43.278Z,15.37
2017-11-04T22:09:10.820Z,12.03
2017-11-04T22:11:39.165Z,15.40
2017-11-04T22:14:06.746Z,11.17
2017-11-04T22:16:34.303Z,13.07
2017-11-04T22:19:02.803Z,14.43
2017-11-04T22:21:31.298Z,11.03
2017-11-04T22:23:59.060Z,8.90
2017-11-04T22:26:26.630Z,12.20
2017-11-04T22:28:54.181Z,11.40
2017-11-04T22:31:21.784Z,11.40
2017-11-04T22:33:49.317Z,11.33
2017-11-04T22:36:17.146Z,12.37
2017-11-04T22:38:44.708Z,11.07
2017-11-04T22:41:12.263Z,12.90
2017-11-04T22:43:40.641Z,11.80
2017-11-04T22:46:09.043Z,11.30
2017-11-04T22:48:36.599Z,11.77
2017-11-04T22:51:04.359Z,11.13
2017-11-04T22:53:31.921Z,11.30
2017-11-04T22:55:59.487Z,13.23
2017-11-04T22:58:27.057Z,12.93
2017-11-04T23:00:54.605Z,17.93
2017-11-04T23:03:22.162Z,13.53
2017-11-04T23:05:49.909Z,16.13
2017-11-04T23:08:17.457Z,11.60
2017-11-04T23:10:45.020Z,16.37
2017-11-04T23:13:12.597Z,21.20
2017-11-04T23:15:40.130Z,13.20
2017-11-04T23:18:08.226Z,10.73
2017-11-04T23:20:35.802Z,14.20
2017-11-04T23:23:03.367Z,10.90
2017-11-04T23:25:31.067Z,14.03
2017-11-04T23:27:58.685Z,226.33
2017-11-04T23:30:27.089Z,267.57
2017-11-04T23:32:54.665Z,76.57
2017-11-04T23:35:23.027Z,15.40
2017-11-04T23:37:50.584Z,12.73
2017-11-04T23:40:18.122Z,15.57
2017-11-04T23:42:45.858Z,12.90
2017-11-04T23:45:13.418Z,13.30
2017-11-04T23:47:40.997Z,13.37
2017-11-04T23:50:08.630Z,14.60
2017-11-04T23:52:36.185Z,15.37
2017-11-04T23:55:03.734Z,10.80
2017-11-04T23:57:31.515Z,11.53
2017-11-04T23:59:59.071Z,12.77
